< < Back
Terminal Aerodrome Forecast


Current Version              Previous Versions:   1  2  3  4  5  6  7  8  9  

Terminal Aerodrome Forecast

260
FTUS44 KMRX 260527
TAFTYS
TAF
KTYS 260527Z 2606/2706 23004KT P6SM SKC
     FM261500 24010KT P6SM SCT050 SCT100
     FM262100 24010KT P6SM VCTS BKN050CB
      TEMPO 2622/2701 3SM -TSRA OVC040CB
     FM270200 35007KT P6SM OVC025=

Latest METAR

258
SAUS80 KWBC 260500 RRB
MTRTYS
METAR KTYS 260453Z 23006KT 10SM CLR 22/17 A3005 RMK AO2 SLP162 T02220172
403440189 $


USA.gov is the U.S. government's official web portal to all federal, state and local government web resources and services.